createdAt,value
2024-03-13T00:00:12.023Z,45.92
2024-03-13T00:03:19.140Z,45.97
2024-03-13T00:06:06.694Z,46.02
2024-03-13T00:08:54.602Z,46.09
2024-03-13T00:11:42.291Z,46.07
2024-03-13T00:14:29.681Z,46.12
2024-03-13T00:17:26.981Z,45.92
2024-03-13T00:20:14.135Z,46.01
2024-03-13T00:23:03.420Z,46.05
2024-03-13T00:25:50.722Z,46.06
2024-03-13T00:28:37.740Z,45.82
2024-03-13T00:31:24.613Z,46.05
2024-03-13T00:34:11.986Z,45.88
2024-03-13T00:36:59.349Z,45.95
2024-03-13T00:39:46.909Z,46.14
2024-03-13T00:42:34.262Z,45.93
2024-03-13T00:45:21.908Z,45.89
2024-03-13T00:48:08.928Z,45.97
2024-03-13T00:51:01.864Z,45.91
2024-03-13T00:53:49.899Z,45.93
2024-03-13T00:56:39.580Z,45.93
2024-03-13T00:59:31.001Z,45.97
2024-03-13T01:02:18.134Z,46.03
2024-03-13T01:05:08.851Z,46.12
2024-03-13T01:07:58.185Z,45.90
2024-03-13T01:10:45.217Z,46.00
2024-03-13T01:13:32.400Z,46.09
2024-03-13T01:16:19.594Z,45.87
2024-03-13T01:19:06.698Z,45.98
2024-03-13T01:21:56.499Z,45.93
2024-03-13T01:24:44.636Z,46.04
2024-03-13T01:27:31.794Z,46.11
2024-03-13T01:30:19.209Z,45.94
2024-03-13T01:33:07.340Z,46.09
2024-03-13T01:35:54.365Z,46.12
2024-03-13T01:38:41.283Z,46.12
2024-03-13T01:41:46.936Z,46.04
2024-03-13T01:44:54.680Z,46.07
2024-03-13T01:48:00.264Z,46.08
2024-03-13T01:51:06.499Z,46.14
2024-03-13T01:54:12.009Z,45.93
2024-03-13T01:57:04.180Z,46.13
2024-03-13T02:00:11.131Z,46.02
2024-03-13T02:02:58.252Z,46.13
2024-03-13T02:05:48.794Z,46.14
2024-03-13T02:08:37.435Z,46.15
2024-03-13T02:11:26.699Z,46.01
2024-03-13T02:14:16.254Z,46.05
2024-03-13T02:17:03.761Z,46.19
2024-03-13T02:19:55.654Z,46.21
2024-03-13T02:22:42.933Z,46.15
2024-03-13T02:25:35.722Z,46.09
2024-03-13T02:28:36.422Z,46.13
2024-03-13T02:31:23.597Z,46.25
2024-03-13T02:34:11.996Z,46.12
2024-03-13T02:37:00.273Z,46.12
2024-03-13T02:39:47.994Z,46.20
2024-03-13T02:42:34.975Z,46.10
2024-03-13T02:45:23.403Z,46.21
2024-03-13T02:48:15.440Z,46.25
2024-03-13T02:51:02.464Z,46.16
2024-03-13T02:53:49.881Z,46.15
2024-03-13T02:56:37.452Z,46.25
2024-03-13T02:59:26.597Z,46.20
2024-03-13T03:02:14.032Z,46.30
2024-03-13T03:05:01.184Z,46.22
2024-03-13T03:07:48.202Z,46.30
2024-03-13T03:10:35.321Z,46.09
2024-03-13T03:13:22.779Z,46.19
2024-03-13T03:16:10.056Z,46.18
2024-03-13T03:18:57.378Z,46.20
2024-03-13T03:21:45.080Z,46.16
2024-03-13T03:24:32.529Z,46.23
2024-03-13T03:27:20.055Z,46.21
2024-03-13T03:30:07.756Z,46.27
2024-03-13T03:32:57.515Z,46.21
2024-03-13T03:35:45.466Z,46.21
2024-03-13T03:38:33.555Z,46.34
2024-03-13T03:41:20.429Z,46.19
2024-03-13T03:44:07.425Z,46.27
2024-03-13T03:46:54.961Z,46.38
2024-03-13T03:49:42.429Z,46.21
2024-03-13T03:52:29.460Z,46.27
2024-03-13T03:55:16.826Z,46.28
2024-03-13T03:58:04.097Z,46.25
2024-03-13T04:00:51.279Z,46.24
2024-03-13T04:03:38.370Z,46.23
2024-03-13T04:06:27.040Z,46.29
2024-03-13T04:09:17.438Z,46.27
2024-03-13T04:12:04.444Z,46.19
2024-03-13T04:14:52.299Z,46.35
2024-03-13T04:17:41.446Z,46.43
2024-03-13T04:20:28.488Z,46.27
2024-03-13T04:23:15.793Z,46.22
2024-03-13T04:26:06.384Z,46.34
2024-03-13T04:28:54.192Z,46.29
2024-03-13T04:31:41.772Z,46.40
2024-03-13T04:34:29.029Z,46.22
2024-03-13T04:37:17.098Z,46.32
2024-03-13T04:40:09.354Z,46.27
2024-03-13T04:42:56.492Z,46.42
2024-03-13T04:45:43.483Z,46.30
2024-03-13T04:48:30.498Z,46.33
2024-03-13T04:51:17.508Z,46.31
2024-03-13T04:54:07.808Z,46.39
2024-03-13T04:56:55.243Z,46.30
2024-03-13T04:59:44.319Z,46.38
2024-03-13T05:02:31.415Z,46.37
2024-03-13T05:05:18.423Z,46.29
2024-03-13T05:08:09.507Z,46.32
2024-03-13T05:10:57.908Z,46.30
2024-03-13T05:13:47.883Z,46.36
2024-03-13T05:16:34.922Z,46.38
2024-03-13T05:19:22.066Z,46.44
2024-03-13T05:22:10.659Z,46.42
2024-03-13T05:24:59.921Z,46.35
2024-03-13T05:27:48.073Z,46.26
2024-03-13T05:30:35.879Z,46.42
2024-03-13T05:33:22.837Z,46.43
2024-03-13T05:36:13.248Z,46.36
2024-03-13T05:39:00.428Z,46.57
2024-03-13T05:41:51.354Z,46.70
2024-03-13T05:44:39.784Z,47.14
2024-03-13T05:47:27.516Z,47.51
2024-03-13T05:50:18.859Z,47.63
2024-03-13T05:53:05.976Z,47.76
2024-03-13T05:55:53.106Z,47.61
2024-03-13T05:58:42.945Z,47.49
2024-03-13T06:01:30.356Z,47.65
2024-03-13T06:04:21.609Z,47.61
2024-03-13T06:07:09.280Z,47.49
2024-03-13T06:09:56.369Z,47.68
2024-03-13T06:12:43.469Z,47.56
2024-03-13T06:15:31.026Z,47.43
2024-03-13T06:18:19.985Z,47.41
2024-03-13T06:21:08.629Z,47.34
2024-03-13T06:24:02.059Z,47.44
2024-03-13T06:26:51.854Z,47.32
2024-03-13T06:29:58.726Z,47.29
2024-03-13T06:32:46.806Z,47.44
2024-03-13T06:35:34.808Z,47.37
2024-03-13T06:38:22.188Z,47.48
2024-03-13T06:41:10.225Z,47.38
2024-03-13T06:43:57.209Z,47.45
2024-03-13T06:46:44.500Z,47.40
2024-03-13T06:49:31.722Z,47.36
2024-03-13T06:52:18.930Z,47.21
2024-03-13T06:55:06.394Z,47.36
2024-03-13T06:57:53.412Z,47.43
2024-03-13T07:00:42.519Z,47.33
2024-03-13T07:03:30.421Z,47.27
2024-03-13T07:06:19.641Z,47.25
2024-03-13T07:09:08.616Z,47.33
2024-03-13T07:11:58.980Z,47.34
2024-03-13T07:14:46.249Z,47.32
2024-03-13T07:17:33.143Z,47.20
2024-03-13T07:20:20.062Z,47.27
2024-03-13T07:23:10.150Z,47.18
2024-03-13T07:25:57.558Z,47.27
2024-03-13T07:28:44.702Z,47.26
2024-03-13T07:31:32.119Z,47.27
2024-03-13T07:34:20.795Z,47.25
2024-03-13T07:37:08.053Z,47.19
2024-03-13T07:39:58.659Z,47.20
2024-03-13T07:42:45.820Z,47.17
2024-03-13T07:45:32.953Z,47.19
2024-03-13T07:48:19.816Z,47.12
2024-03-13T07:51:11.054Z,47.18
2024-03-13T07:53:59.917Z,47.15
2024-03-13T07:56:47.143Z,47.12
2024-03-13T07:59:34.140Z,46.99
2024-03-13T08:02:21.620Z,47.29
2024-03-13T08:05:08.785Z,47.02
2024-03-13T09:05:57.614Z,47.09
2024-03-13T09:08:50.662Z,47.07
2024-03-13T09:11:40.760Z,47.08
2024-03-13T09:14:28.445Z,47.15
2024-03-13T09:17:15.430Z,47.19
2024-03-13T09:20:03.117Z,46.94
2024-03-13T09:22:50.173Z,47.03
2024-03-13T09:25:37.285Z,47.04
2024-03-13T09:28:25.286Z,46.92
2024-03-13T09:31:12.715Z,47.02
2024-03-13T09:34:00.984Z,47.07
2024-03-13T09:36:48.054Z,46.88
2024-03-13T09:39:36.988Z,47.07
2024-03-13T09:42:25.351Z,47.04
2024-03-13T09:45:18.015Z,46.99
2024-03-13T09:48:06.699Z,47.00
2024-03-13T09:50:55.507Z,47.10
2024-03-13T09:53:43.489Z,46.85
2024-03-13T09:56:32.179Z,46.90
2024-03-13T09:59:19.297Z,46.89
2024-03-13T10:02:15.745Z,46.99
2024-03-13T10:05:04.451Z,46.87
2024-03-13T10:07:51.822Z,46.92
2024-03-13T10:10:42.165Z,46.88
2024-03-13T10:13:34.888Z,46.85
2024-03-13T10:16:24.011Z,46.87
2024-03-13T10:19:19.037Z,46.81
2024-03-13T10:22:08.344Z,46.83
2024-03-13T10:25:00.291Z,46.84
2024-03-13T10:27:47.440Z,47.00
2024-03-13T10:30:34.486Z,46.78
2024-03-13T10:33:24.371Z,47.02
2024-03-13T10:36:15.612Z,46.77
2024-03-13T10:39:05.536Z,46.90
2024-03-13T10:41:52.806Z,46.89
2024-03-13T10:44:40.068Z,46.87
2024-03-13T10:47:30.394Z,46.80
2024-03-13T10:50:17.492Z,46.92
2024-03-13T10:53:07.562Z,46.84
2024-03-13T10:55:54.732Z,46.80
2024-03-13T10:58:44.165Z,46.76
2024-03-13T11:01:34.127Z,46.77
2024-03-13T11:04:21.947Z,46.73
2024-03-13T11:07:14.036Z,46.79
2024-03-13T11:10:01.079Z,46.70
2024-03-13T11:12:52.611Z,46.85
2024-03-13T11:15:45.824Z,46.76
2024-03-13T11:18:33.311Z,46.75
2024-03-13T11:21:41.047Z,46.75
2024-03-13T11:24:32.936Z,46.65
2024-03-13T11:27:26.666Z,46.77
2024-03-13T11:30:21.269Z,46.74
2024-03-13T11:33:11.339Z,46.72
2024-03-13T11:36:02.838Z,46.58
2024-03-13T11:38:50.301Z,46.73
2024-03-13T11:41:37.517Z,46.72
2024-03-13T11:44:29.028Z,46.62
2024-03-13T11:47:17.921Z,46.59
2024-03-13T11:50:10.665Z,46.61
2024-03-13T11:53:03.816Z,46.68
2024-03-13T11:55:54.425Z,46.63
2024-03-13T11:58:42.633Z,46.66
2024-03-13T12:01:32.051Z,46.59
2024-03-13T12:04:20.958Z,46.64
2024-03-13T12:07:18.448Z,46.64
2024-03-13T12:10:05.957Z,46.58
2024-03-13T12:12:54.086Z,46.52
2024-03-13T12:15:45.626Z,46.64
2024-03-13T12:18:34.825Z,46.57
2024-03-13T12:21:26.987Z,46.65
2024-03-13T12:24:14.488Z,46.57
2024-03-13T12:27:01.821Z,46.62
2024-03-13T12:29:50.083Z,46.54
2024-03-13T12:32:37.337Z,46.54
2024-03-13T12:35:26.571Z,46.57
2024-03-13T12:38:16.099Z,46.61
2024-03-13T12:41:03.510Z,46.53
2024-03-13T12:43:52.581Z,46.57
2024-03-13T12:46:41.602Z,46.47
2024-03-13T12:49:28.752Z,46.52
2024-03-13T12:52:16.622Z,46.55
2024-03-13T12:55:11.788Z,46.46
2024-03-13T12:58:07.056Z,46.61
2024-03-13T13:00:54.121Z,46.49
2024-03-13T13:03:42.570Z,46.60
2024-03-13T13:06:31.569Z,46.48
2024-03-13T13:09:19.598Z,46.48
2024-03-13T13:12:14.741Z,46.56
2024-03-13T13:15:02.692Z,46.57
2024-03-13T13:17:53.492Z,46.48
2024-03-13T13:20:42.281Z,46.49
2024-03-13T13:23:29.420Z,46.51
2024-03-13T13:26:16.860Z,46.53
2024-03-13T13:31:54.022Z,46.50
2024-03-13T13:34:40.951Z,46.49
2024-03-13T13:37:28.859Z,46.37
2024-03-13T13:40:18.095Z,46.52
2024-03-13T13:43:08.217Z,46.37
2024-03-13T13:45:55.280Z,46.47
2024-03-13T13:48:44.617Z,46.42
2024-03-13T13:51:32.010Z,46.48
2024-03-13T13:54:19.655Z,46.48
2024-03-13T13:57:10.309Z,46.42
2024-03-13T13:59:58.839Z,46.45
2024-03-13T14:02:50.092Z,46.42
2024-03-13T14:05:37.510Z,46.40
2024-03-13T14:08:24.789Z,46.44
2024-03-13T14:11:12.342Z,46.33
2024-03-13T14:14:01.271Z,46.35
2024-03-13T14:16:48.380Z,46.40
2024-03-13T14:19:36.797Z,46.44
2024-03-13T14:22:23.856Z,46.38
2024-03-13T14:25:15.164Z,46.42
2024-03-13T14:28:02.179Z,46.38
2024-03-13T14:30:52.986Z,46.37
2024-03-13T14:33:41.525Z,46.44
2024-03-13T14:36:29.584Z,46.35
2024-03-13T14:39:18.179Z,46.33
2024-03-13T14:42:15.353Z,46.35
2024-03-13T14:45:08.554Z,46.37
2024-03-13T14:47:58.109Z,46.35
2024-03-13T14:50:45.383Z,46.40
2024-03-13T14:53:32.469Z,46.37
2024-03-13T14:56:20.506Z,46.40
2024-03-13T14:59:07.515Z,46.42
2024-03-13T15:01:54.631Z,46.33
2024-03-13T15:04:41.747Z,46.43
2024-03-13T15:07:28.953Z,46.37
2024-03-13T15:10:17.635Z,46.45
2024-03-13T15:13:07.357Z,46.41
2024-03-13T15:15:54.831Z,46.50
2024-03-13T15:18:44.011Z,46.34
2024-03-13T15:21:31.594Z,46.46
2024-03-13T15:24:21.262Z,46.53
2024-03-13T15:27:09.002Z,46.68
2024-03-13T15:29:56.183Z,47.07
2024-03-13T15:32:43.575Z,47.07
2024-03-13T15:35:31.514Z,47.10
2024-03-13T15:38:18.526Z,47.10
2024-03-13T15:41:06.663Z,47.09
2024-03-13T15:43:54.329Z,47.03
2024-03-13T15:46:43.218Z,47.04
2024-03-13T15:49:30.276Z,46.99
2024-03-13T15:52:19.656Z,46.88
2024-03-13T15:55:09.462Z,47.04
2024-03-13T15:57:56.665Z,47.00
2024-03-13T16:00:43.979Z,46.88
2024-03-13T16:03:31.011Z,46.94
2024-03-13T16:06:19.362Z,46.84
2024-03-13T16:09:12.177Z,46.87
2024-03-13T16:12:04.289Z,46.86
2024-03-13T16:14:52.180Z,46.93
2024-03-13T16:17:40.131Z,46.92
2024-03-13T16:20:27.839Z,46.92
2024-03-13T16:23:15.217Z,46.94
2024-03-13T16:26:02.326Z,46.87
2024-03-13T16:28:50.669Z,46.79
2024-03-13T16:31:37.591Z,46.63
2024-03-13T16:34:25.161Z,46.71
2024-03-13T16:37:17.383Z,46.69
2024-03-13T16:40:05.501Z,46.75
2024-03-13T16:42:53.678Z,46.75
2024-03-13T16:45:40.695Z,46.78
2024-03-13T16:48:28.249Z,46.95
2024-03-13T16:51:15.413Z,46.94
2024-03-13T16:54:02.581Z,46.93
2024-03-13T16:56:49.675Z,46.91
2024-03-13T16:59:36.691Z,47.09
2024-03-13T17:02:24.258Z,47.22
2024-03-13T17:05:12.752Z,47.73
2024-03-13T17:08:01.726Z,47.57
2024-03-13T17:10:50.411Z,47.63
2024-03-13T17:13:42.385Z,47.47
2024-03-13T17:16:31.144Z,47.49
2024-03-13T17:19:23.338Z,47.48
2024-03-13T17:22:12.274Z,47.48
2024-03-13T17:24:59.290Z,47.33
2024-03-13T17:27:48.247Z,47.38
2024-03-13T17:30:35.721Z,47.41
2024-03-13T17:33:22.963Z,47.33
2024-03-13T17:36:18.651Z,47.33
2024-03-13T17:39:06.367Z,47.52
2024-03-13T17:41:53.893Z,47.44
2024-03-13T17:44:41.976Z,47.36
2024-03-13T17:47:29.911Z,47.30
2024-03-13T17:50:17.384Z,47.26
2024-03-13T17:53:05.298Z,47.16
2024-03-13T17:55:52.438Z,47.23
2024-03-13T17:58:40.883Z,47.14
2024-03-13T18:01:32.819Z,47.16
2024-03-13T18:04:20.618Z,47.09
2024-03-13T18:07:12.634Z,47.05
2024-03-13T18:09:59.697Z,47.23
2024-03-13T18:12:50.093Z,47.26
2024-03-13T18:15:38.128Z,47.23
2024-03-13T18:18:27.346Z,47.33
2024-03-13T18:21:15.057Z,47.18
2024-03-13T18:24:04.098Z,47.17
2024-03-13T18:26:51.803Z,47.22
2024-03-13T18:29:39.244Z,47.27
2024-03-13T18:32:26.798Z,47.18
2024-03-13T18:35:14.547Z,47.35
2024-03-13T18:38:02.034Z,47.28
2024-03-13T18:40:49.977Z,47.28
2024-03-13T18:43:36.942Z,47.22
2024-03-13T18:46:24.563Z,47.20
2024-03-13T18:49:12.221Z,47.23
2024-03-13T18:51:59.368Z,47.23
2024-03-13T18:54:46.905Z,47.25
2024-03-13T18:57:33.942Z,47.18
2024-03-13T19:00:23.095Z,47.17
2024-03-13T19:03:10.554Z,47.15
2024-03-13T19:05:58.726Z,47.11
2024-03-13T19:08:46.182Z,47.06
2024-03-13T19:11:34.244Z,47.16
2024-03-13T19:14:21.680Z,47.18
2024-03-13T19:17:11.764Z,47.18
2024-03-13T19:19:59.147Z,47.06
2024-03-13T19:22:47.222Z,47.14
2024-03-13T19:25:36.467Z,47.25
2024-03-13T19:28:24.911Z,47.15
2024-03-13T19:31:17.751Z,47.11
2024-03-13T19:34:08.974Z,47.05
2024-03-13T19:36:56.298Z,47.14
2024-03-13T19:39:43.685Z,47.13
2024-03-13T19:42:31.204Z,47.17
2024-03-13T19:45:18.449Z,47.07
2024-03-13T19:48:06.961Z,47.19
2024-03-13T19:50:54.670Z,47.13
2024-03-13T19:53:42.114Z,47.08
2024-03-13T19:56:29.771Z,47.13
2024-03-13T19:59:16.823Z,47.03
2024-03-13T20:02:04.866Z,47.05
2024-03-13T20:04:52.285Z,46.99
2024-03-13T20:07:43.632Z,47.07
2024-03-13T20:10:31.214Z,47.14
2024-03-13T20:13:18.444Z,47.00
2024-03-13T20:16:07.528Z,47.07
2024-03-13T20:18:54.861Z,47.13
2024-03-13T20:21:42.151Z,47.00
2024-03-13T20:24:29.469Z,46.97
2024-03-13T20:27:20.135Z,47.06
2024-03-13T20:30:09.049Z,47.03
2024-03-13T20:32:58.220Z,47.04
2024-03-13T20:35:46.789Z,47.07
2024-03-13T20:38:34.446Z,47.05
2024-03-13T20:41:21.835Z,47.08
2024-03-13T20:44:09.037Z,46.99
2024-03-13T20:46:57.845Z,47.04
2024-03-13T20:49:47.066Z,47.08
2024-03-13T20:52:34.993Z,47.14
2024-03-13T20:55:22.011Z,47.23
2024-03-13T20:58:09.136Z,47.68
2024-03-13T21:00:56.506Z,47.73
2024-03-13T21:03:43.697Z,47.81
2024-03-13T21:06:32.177Z,47.88
2024-03-13T21:09:23.576Z,47.87
2024-03-13T21:12:10.734Z,47.86
2024-03-13T21:14:59.127Z,47.89
2024-03-13T21:17:46.213Z,47.91
2024-03-13T21:20:33.616Z,47.84
2024-03-13T21:23:20.726Z,47.83
2024-03-13T21:26:08.905Z,47.78
2024-03-13T21:28:58.628Z,47.77
2024-03-13T21:31:46.535Z,47.73
2024-03-13T21:34:38.592Z,47.84
2024-03-13T21:37:28.342Z,47.90
2024-03-13T21:40:18.142Z,48.03
2024-03-13T21:43:05.154Z,48.13
2024-03-13T21:45:52.255Z,48.11
2024-03-13T21:48:39.503Z,48.12
2024-03-13T21:51:28.975Z,48.12
2024-03-13T21:54:15.928Z,48.13
2024-03-13T21:57:06.655Z,48.05
2024-03-13T21:59:53.847Z,48.03
2024-03-13T22:02:42.228Z,47.98
2024-03-13T22:05:29.750Z,47.89
2024-03-13T22:08:16.772Z,47.87
2024-03-13T22:11:05.957Z,47.92
2024-03-13T22:13:54.796Z,47.86
2024-03-13T22:16:41.912Z,47.95
2024-03-13T22:19:29.148Z,47.98
2024-03-13T22:22:16.467Z,47.96
2024-03-13T22:25:03.737Z,47.85
2024-03-13T22:27:51.212Z,47.83
2024-03-13T22:30:38.576Z,47.89
2024-03-13T22:33:25.952Z,47.89
2024-03-13T22:36:15.045Z,47.90
2024-03-13T22:39:02.385Z,47.83
2024-03-13T22:41:49.857Z,47.92
2024-03-13T22:44:37.092Z,47.79
2024-03-13T22:47:24.624Z,47.81
2024-03-13T22:50:12.995Z,47.83
2024-03-13T22:53:00.140Z,47.80
2024-03-13T22:55:48.423Z,47.75
2024-03-13T22:58:35.666Z,47.92
2024-03-13T23:01:24.670Z,47.87
2024-03-13T23:04:12.603Z,47.81
2024-03-13T23:06:59.692Z,47.87
2024-03-13T23:09:48.840Z,47.82
2024-03-13T23:12:36.754Z,47.77
2024-03-13T23:15:23.731Z,47.83
2024-03-13T23:18:11.316Z,47.85
2024-03-13T23:20:59.952Z,47.73
2024-03-13T23:23:47.771Z,47.83
2024-03-13T23:26:35.033Z,47.74
2024-03-13T23:29:22.036Z,47.76
2024-03-13T23:32:09.042Z,47.74
2024-03-13T23:34:56.514Z,47.92
2024-03-13T23:37:44.442Z,47.77
2024-03-13T23:40:31.999Z,47.75
2024-03-13T23:43:19.433Z,47.71
2024-03-13T23:46:06.866Z,47.81
2024-03-13T23:48:54.870Z,47.80
2024-03-13T23:51:44.336Z,47.76
2024-03-13T23:54:31.937Z,47.85
2024-03-13T23:57:19.058Z,47.74
